sensor_id;sensor_type;location;lat;lon;timestamp;P1;durP1;ratioP1;P2;durP2;ratioP2
7813;SDS011;3952;48.364;16.022;2023-12-28T00:02:22;8.00;;;7.07;;
7813;SDS011;3952;48.364;16.022;2023-12-28T00:04:50;7.53;;;6.93;;
7813;SDS011;3952;48.364;16.022;2023-12-28T00:07:18;7.67;;;6.83;;
7813;SDS011;3952;48.364;16.022;2023-12-28T00:09:46;8.03;;;7.33;;
7813;SDS011;3952;48.364;16.022;2023-12-28T00:12:13;7.20;;;6.50;;
7813;SDS011;3952;48.364;16.022;2023-12-28T00:14:40;7.07;;;6.47;;
7813;SDS011;3952;48.364;16.022;2023-12-28T00:17:08;6.63;;;6.13;;
7813;SDS011;3952;48.364;16.022;2023-12-28T00:19:35;6.63;;;6.03;;
7813;SDS011;3952;48.364;16.022;2023-12-28T00:22:03;7.50;;;6.20;;
7813;SDS011;3952;48.364;16.022;2023-12-28T00:24:31;7.47;;;6.73;;
7813;SDS011;3952;48.364;16.022;2023-12-28T00:26:59;7.43;;;6.70;;
7813;SDS011;3952;48.364;16.022;2023-12-28T00:29:26;7.40;;;6.70;;
7813;SDS011;3952;48.364;16.022;2023-12-28T00:31:54;7.07;;;6.37;;
7813;SDS011;3952;48.364;16.022;2023-12-28T00:34:21;7.60;;;6.73;;
7813;SDS011;3952;48.364;16.022;2023-12-28T00:36:48;8.33;;;7.27;;
7813;SDS011;3952;48.364;16.022;2023-12-28T00:39:16;8.93;;;8.07;;
7813;SDS011;3952;48.364;16.022;2023-12-28T00:41:44;8.87;;;8.07;;
7813;SDS011;3952;48.364;16.022;2023-12-28T00:44:12;9.40;;;7.87;;
7813;SDS011;3952;48.364;16.022;2023-12-28T00:46:39;14.47;;;9.00;;
7813;SDS011;3952;48.364;16.022;2023-12-28T00:49:06;20.40;;;8.83;;
7813;SDS011;3952;48.364;16.022;2023-12-28T00:51:34;14.33;;;8.30;;
7813;SDS011;3952;48.364;16.022;2023-12-28T00:54:02;16.17;;;9.80;;
7813;SDS011;3952;48.364;16.022;2023-12-28T00:56:29;13.07;;;8.40;;
7813;SDS011;3952;48.364;16.022;2023-12-28T00:58:58;11.63;;;9.23;;
7813;SDS011;3952;48.364;16.022;2023-12-28T01:01:26;12.83;;;10.27;;
7813;SDS011;3952;48.364;16.022;2023-12-28T01:03:55;19.17;;;10.87;;
7813;SDS011;3952;48.364;16.022;2023-12-28T01:06:23;35.57;;;12.20;;
7813;SDS011;3952;48.364;16.022;2023-12-28T01:08:53;15.37;;;10.03;;
7813;SDS011;3952;48.364;16.022;2023-12-28T01:11:21;17.27;;;10.50;;
7813;SDS011;3952;48.364;16.022;2023-12-28T01:13:48;19.03;;;11.87;;
7813;SDS011;3952;48.364;16.022;2023-12-28T01:16:19;18.50;;;11.23;;
7813;SDS011;3952;48.364;16.022;2023-12-28T01:18:46;13.33;;;10.40;;
7813;SDS011;3952;48.364;16.022;2023-12-28T01:21:13;14.93;;;10.63;;
7813;SDS011;3952;48.364;16.022;2023-12-28T01:23:41;14.30;;;11.53;;
7813;SDS011;3952;48.364;16.022;2023-12-28T01:26:12;12.17;;;10.50;;
7813;SDS011;3952;48.364;16.022;2023-12-28T01:28:40;15.60;;;10.93;;
7813;SDS011;3952;48.364;16.022;2023-12-28T01:31:07;18.73;;;11.93;;
7813;SDS011;3952;48.364;16.022;2023-12-28T01:33:36;30.63;;;11.70;;
7813;SDS011;3952;48.364;16.022;2023-12-28T01:36:13;15.83;;;11.20;;
7813;SDS011;3952;48.364;16.022;2023-12-28T01:38:42;18.10;;;10.77;;
7813;SDS011;3952;48.364;16.022;2023-12-28T01:41:10;31.90;;;13.03;;
7813;SDS011;3952;48.364;16.022;2023-12-28T01:43:37;33.57;;;14.17;;
7813;SDS011;3952;48.364;16.022;2023-12-28T01:46:05;37.77;;;20.07;;
7813;SDS011;3952;48.364;16.022;2023-12-28T01:48:34;30.03;;;16.93;;
7813;SDS011;3952;48.364;16.022;2023-12-28T01:51:03;20.17;;;13.27;;
7813;SDS011;3952;48.364;16.022;2023-12-28T01:53:31;15.20;;;12.23;;
7813;SDS011;3952;48.364;16.022;2023-12-28T01:55:58;27.40;;;12.87;;
7813;SDS011;3952;48.364;16.022;2023-12-28T01:58:26;17.87;;;12.17;;
7813;SDS011;3952;48.364;16.022;2023-12-28T02:00:59;18.83;;;11.73;;
7813;SDS011;3952;48.364;16.022;2023-12-28T02:03:27;13.90;;;10.97;;
7813;SDS011;3952;48.364;16.022;2023-12-28T02:05:55;13.57;;;10.87;;
7813;SDS011;3952;48.364;16.022;2023-12-28T02:08:23;11.57;;;10.57;;
7813;SDS011;3952;48.364;16.022;2023-12-28T02:10:51;12.17;;;10.97;;
7813;SDS011;3952;48.364;16.022;2023-12-28T02:13:20;17.47;;;11.03;;
7813;SDS011;3952;48.364;16.022;2023-12-28T02:15:49;12.13;;;11.03;;
7813;SDS011;3952;48.364;16.022;2023-12-28T02:18:26;11.67;;;10.57;;
7813;SDS011;3952;48.364;16.022;2023-12-28T02:20:59;13.50;;;10.50;;
7813;SDS011;3952;48.364;16.022;2023-12-28T02:23:29;11.30;;;10.30;;
7813;SDS011;3952;48.364;16.022;2023-12-28T02:26:00;14.67;;;10.03;;
7813;SDS011;3952;48.364;16.022;2023-12-28T02:28:27;11.67;;;10.20;;
7813;SDS011;3952;48.364;16.022;2023-12-28T02:30:54;11.03;;;10.00;;
7813;SDS011;3952;48.364;16.022;2023-12-28T02:33:23;12.07;;;10.77;;
7813;SDS011;3952;48.364;16.022;2023-12-28T02:35:57;11.30;;;10.20;;
7813;SDS011;3952;48.364;16.022;2023-12-28T02:38:28;14.07;;;10.67;;
7813;SDS011;3952;48.364;16.022;2023-12-28T02:40:57;12.37;;;11.17;;
7813;SDS011;3952;48.364;16.022;2023-12-28T02:43:26;12.47;;;11.27;;
7813;SDS011;3952;48.364;16.022;2023-12-28T02:45:53;13.80;;;10.37;;
7813;SDS011;3952;48.364;16.022;2023-12-28T02:48:21;11.90;;;10.80;;
7813;SDS011;3952;48.364;16.022;2023-12-28T02:50:48;23.40;;;11.60;;
7813;SDS011;3952;48.364;16.022;2023-12-28T02:53:15;12.93;;;11.33;;
7813;SDS011;3952;48.364;16.022;2023-12-28T02:55:43;14.90;;;11.20;;
7813;SDS011;3952;48.364;16.022;2023-12-28T02:58:10;14.30;;;11.70;;
7813;SDS011;3952;48.364;16.022;2023-12-28T03:00:39;12.10;;;10.80;;
7813;SDS011;3952;48.364;16.022;2023-12-28T03:03:06;11.47;;;10.37;;
7813;SDS011;3952;48.364;16.022;2023-12-28T03:05:33;12.97;;;11.63;;
7813;SDS011;3952;48.364;16.022;2023-12-28T03:08:01;18.70;;;10.83;;
7813;SDS011;3952;48.364;16.022;2023-12-28T03:10:28;24.73;;;10.60;;
7813;SDS011;3952;48.364;16.022;2023-12-28T03:12:55;11.20;;;10.10;;
7813;SDS011;3952;48.364;16.022;2023-12-28T03:15:23;22.23;;;10.20;;
7813;SDS011;3952;48.364;16.022;2023-12-28T03:17:51;12.07;;;9.47;;
7813;SDS011;3952;48.364;16.022;2023-12-28T03:20:20;30.60;;;11.23;;
7813;SDS011;3952;48.364;16.022;2023-12-28T03:22:47;22.57;;;11.30;;
7813;SDS011;3952;48.364;16.022;2023-12-28T03:25:14;20.17;;;10.73;;
7813;SDS011;3952;48.364;16.022;2023-12-28T03:27:42;18.50;;;11.73;;
7813;SDS011;3952;48.364;16.022;2023-12-28T03:30:09;16.47;;;11.60;;
7813;SDS011;3952;48.364;16.022;2023-12-28T03:32:37;21.47;;;11.93;;
7813;SDS011;3952;48.364;16.022;2023-12-28T03:35:06;19.57;;;11.97;;
7813;SDS011;3952;48.364;16.022;2023-12-28T03:37:34;15.70;;;11.00;;
7813;SDS011;3952;48.364;16.022;2023-12-28T03:40:01;27.40;;;11.50;;
7813;SDS011;3952;48.364;16.022;2023-12-28T03:42:29;39.23;;;13.33;;
7813;SDS011;3952;48.364;16.022;2023-12-28T03:44:56;29.43;;;12.30;;
7813;SDS011;3952;48.364;16.022;2023-12-28T03:47:23;24.60;;;13.30;;
7813;SDS011;3952;48.364;16.022;2023-12-28T03:49:50;17.97;;;13.17;;
7813;SDS011;3952;48.364;16.022;2023-12-28T03:52:19;17.90;;;12.70;;
7813;SDS011;3952;48.364;16.022;2023-12-28T03:54:47;40.40;;;14.80;;
7813;SDS011;3952;48.364;16.022;2023-12-28T03:57:15;53.73;;;15.57;;
7813;SDS011;3952;48.364;16.022;2023-12-28T03:59:42;28.13;;;14.13;;
7813;SDS011;3952;48.364;16.022;2023-12-28T04:02:09;23.10;;;13.67;;
7813;SDS011;3952;48.364;16.022;2023-12-28T04:04:36;50.67;;;14.80;;
7813;SDS011;3952;48.364;16.022;2023-12-28T04:07:04;29.83;;;13.67;;
7813;SDS011;3952;48.364;16.022;2023-12-28T04:09:34;43.37;;;14.70;;
7813;SDS011;3952;48.364;16.022;2023-12-28T04:12:01;22.83;;;14.87;;
7813;SDS011;3952;48.364;16.022;2023-12-28T04:14:28;18.70;;;12.80;;
7813;SDS011;3952;48.364;16.022;2023-12-28T04:16:56;40.77;;;15.33;;
7813;SDS011;3952;48.364;16.022;2023-12-28T04:19:23;33.03;;;15.73;;
7813;SDS011;3952;48.364;16.022;2023-12-28T04:21:50;38.30;;;14.37;;
7813;SDS011;3952;48.364;16.022;2023-12-28T04:24:17;46.37;;;15.80;;
7813;SDS011;3952;48.364;16.022;2023-12-28T04:26:46;47.20;;;15.53;;
7813;SDS011;3952;48.364;16.022;2023-12-28T04:29:13;19.53;;;14.57;;
7813;SDS011;3952;48.364;16.022;2023-12-28T04:31:41;38.43;;;15.53;;
7813;SDS011;3952;48.364;16.022;2023-12-28T04:34:08;19.47;;;13.83;;
7813;SDS011;3952;48.364;16.022;2023-12-28T04:36:39;37.20;;;14.70;;
7813;SDS011;3952;48.364;16.022;2023-12-28T04:39:07;26.13;;;14.90;;
7813;SDS011;3952;48.364;16.022;2023-12-28T04:41:34;25.17;;;14.40;;
7813;SDS011;3952;48.364;16.022;2023-12-28T04:44:03;35.03;;;15.20;;
7813;SDS011;3952;48.364;16.022;2023-12-28T04:46:31;43.83;;;16.77;;
7813;SDS011;3952;48.364;16.022;2023-12-28T04:48:58;26.73;;;16.50;;
7813;SDS011;3952;48.364;16.022;2023-12-28T04:51:25;36.73;;;16.60;;
7813;SDS011;3952;48.364;16.022;2023-12-28T04:53:52;30.10;;;16.97;;
7813;SDS011;3952;48.364;16.022;2023-12-28T04:56:20;27.10;;;16.13;;
7813;SDS011;3952;48.364;16.022;2023-12-28T04:58:47;25.27;;;15.80;;
7813;SDS011;3952;48.364;16.022;2023-12-28T05:01:16;24.23;;;15.23;;
7813;SDS011;3952;48.364;16.022;2023-12-28T05:03:43;65.70;;;17.73;;
7813;SDS011;3952;48.364;16.022;2023-12-28T05:06:10;73.50;;;20.63;;
7813;SDS011;3952;48.364;16.022;2023-12-28T05:08:37;71.03;;;18.43;;
7813;SDS011;3952;48.364;16.022;2023-12-28T05:11:05;41.23;;;15.63;;
7813;SDS011;3952;48.364;16.022;2023-12-28T05:13:32;56.40;;;17.20;;
7813;SDS011;3952;48.364;16.022;2023-12-28T05:16:00;38.43;;;14.63;;
7813;SDS011;3952;48.364;16.022;2023-12-28T05:18:30;40.87;;;14.67;;
7813;SDS011;3952;48.364;16.022;2023-12-28T05:20:57;43.33;;;14.80;;
7813;SDS011;3952;48.364;16.022;2023-12-28T05:23:24;55.23;;;15.30;;
7813;SDS011;3952;48.364;16.022;2023-12-28T05:25:52;46.63;;;14.50;;
7813;SDS011;3952;48.364;16.022;2023-12-28T05:28:19;40.17;;;14.77;;
7813;SDS011;3952;48.364;16.022;2023-12-28T05:30:46;16.40;;;12.70;;
7813;SDS011;3952;48.364;16.022;2023-12-28T05:33:14;24.43;;;13.50;;
7813;SDS011;3952;48.364;16.022;2023-12-28T05:35:42;23.53;;;13.23;;
7813;SDS011;3952;48.364;16.022;2023-12-28T05:38:10;17.80;;;12.90;;
7813;SDS011;3952;48.364;16.022;2023-12-28T05:40:37;14.80;;;12.57;;
7813;SDS011;3952;48.364;16.022;2023-12-28T05:43:05;16.30;;;12.67;;
7813;SDS011;3952;48.364;16.022;2023-12-28T05:45:32;25.67;;;13.80;;
7813;SDS011;3952;48.364;16.022;2023-12-28T05:47:59;15.27;;;13.07;;
7813;SDS011;3952;48.364;16.022;2023-12-28T05:50:27;19.73;;;13.73;;
7813;SDS011;3952;48.364;16.022;2023-12-28T05:52:55;18.53;;;13.10;;
7813;SDS011;3952;48.364;16.022;2023-12-28T05:55:22;14.87;;;12.60;;
7813;SDS011;3952;48.364;16.022;2023-12-28T05:57:50;21.63;;;13.93;;
7813;SDS011;3952;48.364;16.022;2023-12-28T06:00:17;17.23;;;12.87;;
7813;SDS011;3952;48.364;16.022;2023-12-28T06:02:45;25.27;;;13.47;;
7813;SDS011;3952;48.364;16.022;2023-12-28T06:05:16;43.03;;;14.17;;
7813;SDS011;3952;48.364;16.022;2023-12-28T06:07:44;16.43;;;12.03;;
7813;SDS011;3952;48.364;16.022;2023-12-28T06:10:13;31.13;;;13.20;;
7813;SDS011;3952;48.364;16.022;2023-12-28T06:12:40;21.97;;;12.50;;
7813;SDS011;3952;48.364;16.022;2023-12-28T06:15:08;16.67;;;13.23;;
7813;SDS011;3952;48.364;16.022;2023-12-28T06:17:36;27.53;;;14.57;;
7813;SDS011;3952;48.364;16.022;2023-12-28T06:20:03;14.80;;;12.67;;
7813;SDS011;3952;48.364;16.022;2023-12-28T06:22:33;22.10;;;14.23;;
7813;SDS011;3952;48.364;16.022;2023-12-28T06:25:03;55.40;;;16.50;;
7813;SDS011;3952;48.364;16.022;2023-12-28T06:27:33;31.67;;;14.50;;
7813;SDS011;3952;48.364;16.022;2023-12-28T06:30:00;17.17;;;13.40;;
7813;SDS011;3952;48.364;16.022;2023-12-28T06:32:27;30.87;;;15.27;;
7813;SDS011;3952;48.364;16.022;2023-12-28T06:34:54;35.07;;;17.03;;
7813;SDS011;3952;48.364;16.022;2023-12-28T06:37:22;34.97;;;15.63;;
7813;SDS011;3952;48.364;16.022;2023-12-28T06:39:49;21.43;;;15.17;;
7813;SDS011;3952;48.364;16.022;2023-12-28T06:42:16;25.47;;;15.70;;
7813;SDS011;3952;48.364;16.022;2023-12-28T06:44:45;29.03;;;15.57;;
7813;SDS011;3952;48.364;16.022;2023-12-28T06:47:12;25.27;;;15.27;;
7813;SDS011;3952;48.364;16.022;2023-12-28T06:49:40;32.20;;;16.57;;
7813;SDS011;3952;48.364;16.022;2023-12-28T06:52:07;42.23;;;18.83;;
7813;SDS011;3952;48.364;16.022;2023-12-28T06:54:34;21.97;;;15.90;;
7813;SDS011;3952;48.364;16.022;2023-12-28T06:57:02;31.37;;;15.97;;
7813;SDS011;3952;48.364;16.022;2023-12-28T06:59:29;24.77;;;16.57;;
7813;SDS011;3952;48.364;16.022;2023-12-28T07:01:58;23.90;;;15.73;;
7813;SDS011;3952;48.364;16.022;2023-12-28T07:04:25;26.63;;;16.33;;
7813;SDS011;3952;48.364;16.022;2023-12-28T07:06:54;39.07;;;17.20;;
7813;SDS011;3952;48.364;16.022;2023-12-28T07:09:22;40.63;;;16.43;;
7813;SDS011;3952;48.364;16.022;2023-12-28T07:11:49;33.93;;;17.03;;
7813;SDS011;3952;48.364;16.022;2023-12-28T07:14:16;30.07;;;15.33;;
7813;SDS011;3952;48.364;16.022;2023-12-28T07:16:43;23.53;;;15.97;;
7813;SDS011;3952;48.364;16.022;2023-12-28T07:19:12;26.90;;;15.83;;
7813;SDS011;3952;48.364;16.022;2023-12-28T07:21:39;52.77;;;17.67;;
7813;SDS011;3952;48.364;16.022;2023-12-28T07:24:07;25.43;;;15.47;;
7813;SDS011;3952;48.364;16.022;2023-12-28T07:26:34;63.43;;;19.47;;
7813;SDS011;3952;48.364;16.022;2023-12-28T07:29:01;45.40;;;18.97;;
7813;SDS011;3952;48.364;16.022;2023-12-28T07:31:29;37.73;;;18.53;;
7813;SDS011;3952;48.364;16.022;2023-12-28T07:33:57;39.73;;;19.43;;
7813;SDS011;3952;48.364;16.022;2023-12-28T07:36:26;27.90;;;17.23;;
7813;SDS011;3952;48.364;16.022;2023-12-28T07:38:53;42.87;;;17.43;;
7813;SDS011;3952;48.364;16.022;2023-12-28T07:41:20;46.27;;;17.03;;
7813;SDS011;3952;48.364;16.022;2023-12-28T07:43:47;23.33;;;15.63;;
7813;SDS011;3952;48.364;16.022;2023-12-28T07:46:15;43.13;;;16.00;;
7813;SDS011;3952;48.364;16.022;2023-12-28T07:48:42;54.53;;;17.27;;
7813;SDS011;3952;48.364;16.022;2023-12-28T07:51:09;79.83;;;17.10;;
7813;SDS011;3952;48.364;16.022;2023-12-28T07:53:41;17.63;;;13.90;;
7813;SDS011;3952;48.364;16.022;2023-12-28T07:56:08;17.53;;;13.63;;
7813;SDS011;3952;48.364;16.022;2023-12-28T07:58:35;22.40;;;14.77;;
7813;SDS011;3952;48.364;16.022;2023-12-28T08:01:09;28.17;;;15.57;;
7813;SDS011;3952;48.364;16.022;2023-12-28T08:03:37;32.07;;;17.63;;
7813;SDS011;3952;48.364;16.022;2023-12-28T08:06:05;36.00;;;19.10;;
7813;SDS011;3952;48.364;16.022;2023-12-28T08:08:32;30.20;;;17.43;;
7813;SDS011;3952;48.364;16.022;2023-12-28T08:11:03;26.23;;;17.30;;
7813;SDS011;3952;48.364;16.022;2023-12-28T08:13:30;30.03;;;16.70;;
7813;SDS011;3952;48.364;16.022;2023-12-28T08:15:57;36.13;;;16.93;;
7813;SDS011;3952;48.364;16.022;2023-12-28T08:18:25;22.23;;;16.10;;
7813;SDS011;3952;48.364;16.022;2023-12-28T08:20:52;45.93;;;18.33;;
7813;SDS011;3952;48.364;16.022;2023-12-28T08:23:19;36.27;;;18.17;;
7813;SDS011;3952;48.364;16.022;2023-12-28T08:25:46;31.63;;;17.73;;
7813;SDS011;3952;48.364;16.022;2023-12-28T08:28:15;34.37;;;17.77;;
7813;SDS011;3952;48.364;16.022;2023-12-28T08:30:43;34.17;;;18.63;;
7813;SDS011;3952;48.364;16.022;2023-12-28T08:33:10;38.67;;;18.90;;
7813;SDS011;3952;48.364;16.022;2023-12-28T08:35:38;41.17;;;19.43;;
7813;SDS011;3952;48.364;16.022;2023-12-28T08:38:05;37.90;;;19.20;;
7813;SDS011;3952;48.364;16.022;2023-12-28T08:40:33;42.70;;;19.27;;
7813;SDS011;3952;48.364;16.022;2023-12-28T08:43:00;39.67;;;20.50;;
7813;SDS011;3952;48.364;16.022;2023-12-28T08:45:29;33.37;;;18.10;;
7813;SDS011;3952;48.364;16.022;2023-12-28T08:47:56;44.53;;;19.07;;
7813;SDS011;3952;48.364;16.022;2023-12-28T08:50:23;29.53;;;17.67;;
7813;SDS011;3952;48.364;16.022;2023-12-28T08:52:51;33.67;;;18.60;;
7813;SDS011;3952;48.364;16.022;2023-12-28T08:55:18;32.13;;;18.53;;
7813;SDS011;3952;48.364;16.022;2023-12-28T08:57:45;32.43;;;18.60;;
7813;SDS011;3952;48.364;16.022;2023-12-28T09:00:13;33.00;;;19.60;;
7813;SDS011;3952;48.364;16.022;2023-12-28T09:02:43;41.73;;;21.23;;
7813;SDS011;3952;48.364;16.022;2023-12-28T09:05:10;37.97;;;20.37;;
7813;SDS011;3952;48.364;16.022;2023-12-28T09:07:38;27.97;;;17.63;;
7813;SDS011;3952;48.364;16.022;2023-12-28T09:10:08;25.97;;;17.70;;
7813;SDS011;3952;48.364;16.022;2023-12-28T09:12:36;31.53;;;19.50;;
7813;SDS011;3952;48.364;16.022;2023-12-28T09:15:05;31.23;;;18.67;;
7813;SDS011;3952;48.364;16.022;2023-12-28T09:17:33;29.57;;;18.53;;
7813;SDS011;3952;48.364;16.022;2023-12-28T09:20:02;27.97;;;18.30;;
7813;SDS011;3952;48.364;16.022;2023-12-28T09:22:31;30.10;;;18.23;;
7813;SDS011;3952;48.364;16.022;2023-12-28T09:24:58;26.63;;;17.13;;
7813;SDS011;3952;48.364;16.022;2023-12-28T09:27:26;32.87;;;19.83;;
7813;SDS011;3952;48.364;16.022;2023-12-28T09:29:53;33.37;;;18.63;;
7813;SDS011;3952;48.364;16.022;2023-12-28T09:32:20;33.53;;;19.97;;
7813;SDS011;3952;48.364;16.022;2023-12-28T09:34:48;30.53;;;19.27;;
7813;SDS011;3952;48.364;16.022;2023-12-28T09:37:16;32.40;;;20.10;;
7813;SDS011;3952;48.364;16.022;2023-12-28T09:39:44;32.00;;;19.67;;
7813;SDS011;3952;48.364;16.022;2023-12-28T09:42:14;29.53;;;18.70;;
7813;SDS011;3952;48.364;16.022;2023-12-28T09:44:50;31.87;;;20.13;;
7813;SDS011;3952;48.364;16.022;2023-12-28T09:47:18;33.30;;;19.73;;
7813;SDS011;3952;48.364;16.022;2023-12-28T09:49:45;31.93;;;20.73;;
7813;SDS011;3952;48.364;16.022;2023-12-28T09:52:14;30.70;;;20.77;;
7813;SDS011;3952;48.364;16.022;2023-12-28T09:54:43;32.90;;;19.23;;
7813;SDS011;3952;48.364;16.022;2023-12-28T09:57:10;33.23;;;20.07;;
7813;SDS011;3952;48.364;16.022;2023-12-28T09:59:39;30.50;;;19.73;;
7813;SDS011;3952;48.364;16.022;2023-12-28T10:02:07;35.03;;;20.63;;
7813;SDS011;3952;48.364;16.022;2023-12-28T10:04:35;29.90;;;19.23;;
7813;SDS011;3952;48.364;16.022;2023-12-28T10:07:03;28.00;;;19.33;;
7813;SDS011;3952;48.364;16.022;2023-12-28T10:09:31;26.80;;;18.67;;
7813;SDS011;3952;48.364;16.022;2023-12-28T10:12:00;30.40;;;19.80;;
7813;SDS011;3952;48.364;16.022;2023-12-28T10:14:29;31.97;;;19.47;;
7813;SDS011;3952;48.364;16.022;2023-12-28T10:16:57;31.77;;;19.07;;
7813;SDS011;3952;48.364;16.022;2023-12-28T10:19:24;31.07;;;19.27;;
7813;SDS011;3952;48.364;16.022;2023-12-28T10:21:51;30.33;;;18.70;;
7813;SDS011;3952;48.364;16.022;2023-12-28T10:24:19;31.90;;;18.43;;
7813;SDS011;3952;48.364;16.022;2023-12-28T10:26:46;28.47;;;18.63;;
7813;SDS011;3952;48.364;16.022;2023-12-28T10:29:15;31.47;;;19.90;;
7813;SDS011;3952;48.364;16.022;2023-12-28T10:31:42;34.23;;;22.13;;
7813;SDS011;3952;48.364;16.022;2023-12-28T10:34:14;26.47;;;18.63;;
7813;SDS011;3952;48.364;16.022;2023-12-28T10:36:41;37.33;;;21.27;;
7813;SDS011;3952;48.364;16.022;2023-12-28T10:39:09;25.10;;;18.37;;
7813;SDS011;3952;48.364;16.022;2023-12-28T10:41:38;30.40;;;19.07;;
7813;SDS011;3952;48.364;16.022;2023-12-28T10:44:08;28.63;;;19.37;;
7813;SDS011;3952;48.364;16.022;2023-12-28T10:46:40;37.23;;;21.43;;
7813;SDS011;3952;48.364;16.022;2023-12-28T10:49:10;29.37;;;19.03;;
7813;SDS011;3952;48.364;16.022;2023-12-28T10:51:40;31.60;;;20.37;;
7813;SDS011;3952;48.364;16.022;2023-12-28T10:54:11;31.87;;;20.80;;
7813;SDS011;3952;48.364;16.022;2023-12-28T10:56:47;36.33;;;20.77;;
7813;SDS011;3952;48.364;16.022;2023-12-28T10:59:21;32.53;;;20.87;;
7813;SDS011;3952;48.364;16.022;2023-12-28T11:01:54;30.83;;;19.83;;
7813;SDS011;3952;48.364;16.022;2023-12-28T11:04:27;34.00;;;21.97;;
7813;SDS011;3952;48.364;16.022;2023-12-28T11:07:03;34.97;;;23.77;;
7813;SDS011;3952;48.364;16.022;2023-12-28T11:09:34;36.60;;;22.17;;
7813;SDS011;3952;48.364;16.022;2023-12-28T11:12:02;40.00;;;24.67;;
7813;SDS011;3952;48.364;16.022;2023-12-28T11:14:33;28.83;;;20.70;;
7813;SDS011;3952;48.364;16.022;2023-12-28T11:17:02;34.40;;;20.00;;
7813;SDS011;3952;48.364;16.022;2023-12-28T11:19:31;32.67;;;19.27;;
7813;SDS011;3952;48.364;16.022;2023-12-28T11:22:01;29.93;;;18.73;;
7813;SDS011;3952;48.364;16.022;2023-12-28T11:24:29;27.70;;;18.70;;
7813;SDS011;3952;48.364;16.022;2023-12-28T11:26:58;34.07;;;20.43;;
7813;SDS011;3952;48.364;16.022;2023-12-28T11:29:28;31.17;;;19.97;;
7813;SDS011;3952;48.364;16.022;2023-12-28T11:31:57;27.17;;;18.67;;
7813;SDS011;3952;48.364;16.022;2023-12-28T11:34:27;29.60;;;18.30;;
7813;SDS011;3952;48.364;16.022;2023-12-28T11:36:56;25.53;;;17.73;;
7813;SDS011;3952;48.364;16.022;2023-12-28T11:39:29;28.03;;;19.03;;
7813;SDS011;3952;48.364;16.022;2023-12-28T11:42:01;28.37;;;18.87;;
7813;SDS011;3952;48.364;16.022;2023-12-28T11:44:29;34.30;;;23.83;;
7813;SDS011;3952;48.364;16.022;2023-12-28T11:46:57;54.83;;;32.23;;
7813;SDS011;3952;48.364;16.022;2023-12-28T11:49:25;36.23;;;22.73;;
7813;SDS011;3952;48.364;16.022;2023-12-28T11:51:55;36.03;;;23.60;;
7813;SDS011;3952;48.364;16.022;2023-12-28T11:54:25;72.23;;;42.83;;
7813;SDS011;3952;48.364;16.022;2023-12-28T11:56:52;38.77;;;25.27;;
7813;SDS011;3952;48.364;16.022;2023-12-28T11:59:19;25.10;;;18.87;;
7813;SDS011;3952;48.364;16.022;2023-12-28T12:01:50;28.43;;;19.03;;
7813;SDS011;3952;48.364;16.022;2023-12-28T12:04:17;28.17;;;19.70;;
7813;SDS011;3952;48.364;16.022;2023-12-28T12:06:46;27.87;;;18.77;;
7813;SDS011;3952;48.364;16.022;2023-12-28T12:09:15;25.77;;;18.57;;
7813;SDS011;3952;48.364;16.022;2023-12-28T12:11:43;27.10;;;19.30;;
7813;SDS011;3952;48.364;16.022;2023-12-28T12:14:10;24.50;;;18.07;;
7813;SDS011;3952;48.364;16.022;2023-12-28T12:16:38;29.87;;;20.50;;
7813;SDS011;3952;48.364;16.022;2023-12-28T12:19:05;25.63;;;18.13;;
7813;SDS011;3952;48.364;16.022;2023-12-28T12:21:34;27.43;;;18.90;;
7813;SDS011;3952;48.364;16.022;2023-12-28T12:24:04;27.07;;;18.50;;
7813;SDS011;3952;48.364;16.022;2023-12-28T12:26:32;27.03;;;19.27;;
7813;SDS011;3952;48.364;16.022;2023-12-28T12:29:01;28.77;;;19.83;;
7813;SDS011;3952;48.364;16.022;2023-12-28T12:31:29;27.10;;;19.37;;
7813;SDS011;3952;48.364;16.022;2023-12-28T12:33:57;28.20;;;19.20;;
7813;SDS011;3952;48.364;16.022;2023-12-28T12:36:24;27.07;;;19.57;;
7813;SDS011;3952;48.364;16.022;2023-12-28T12:38:52;24.83;;;18.37;;
7813;SDS011;3952;48.364;16.022;2023-12-28T12:41:21;27.30;;;19.30;;
7813;SDS011;3952;48.364;16.022;2023-12-28T12:43:48;29.33;;;20.50;;
7813;SDS011;3952;48.364;16.022;2023-12-28T12:46:15;26.03;;;18.60;;
7813;SDS011;3952;48.364;16.022;2023-12-28T12:48:53;27.13;;;18.53;;
7813;SDS011;3952;48.364;16.022;2023-12-28T12:51:21;28.00;;;19.43;;
7813;SDS011;3952;48.364;16.022;2023-12-28T12:53:49;25.53;;;17.97;;
7813;SDS011;3952;48.364;16.022;2023-12-28T12:56:16;26.47;;;19.17;;
7813;SDS011;3952;48.364;16.022;2023-12-28T12:58:46;25.03;;;18.87;;
7813;SDS011;3952;48.364;16.022;2023-12-28T13:01:14;26.30;;;19.63;;
7813;SDS011;3952;48.364;16.022;2023-12-28T13:03:41;25.93;;;19.83;;
7813;SDS011;3952;48.364;16.022;2023-12-28T13:06:08;26.60;;;18.77;;
7813;SDS011;3952;48.364;16.022;2023-12-28T13:08:36;25.73;;;18.53;;
7813;SDS011;3952;48.364;16.022;2023-12-28T13:11:03;24.70;;;18.10;;
7813;SDS011;3952;48.364;16.022;2023-12-28T13:13:32;28.60;;;19.07;;
7813;SDS011;3952;48.364;16.022;2023-12-28T13:16:01;31.70;;;20.20;;
7813;SDS011;3952;48.364;16.022;2023-12-28T13:18:29;29.10;;;19.67;;
7813;SDS011;3952;48.364;16.022;2023-12-28T13:20:57;28.73;;;19.83;;
7813;SDS011;3952;48.364;16.022;2023-12-28T13:23:25;28.67;;;19.43;;
7813;SDS011;3952;48.364;16.022;2023-12-28T13:25:54;28.83;;;19.90;;
7813;SDS011;3952;48.364;16.022;2023-12-28T13:28:21;29.63;;;19.90;;
7813;SDS011;3952;48.364;16.022;2023-12-28T13:30:48;28.90;;;20.27;;
7813;SDS011;3952;48.364;16.022;2023-12-28T13:33:22;28.77;;;19.90;;
7813;SDS011;3952;48.364;16.022;2023-12-28T13:35:50;29.97;;;19.90;;
7813;SDS011;3952;48.364;16.022;2023-12-28T13:38:18;31.60;;;20.10;;
7813;SDS011;3952;48.364;16.022;2023-12-28T13:40:45;30.27;;;19.53;;
7813;SDS011;3952;48.364;16.022;2023-12-28T13:43:12;29.50;;;19.63;;
7813;SDS011;3952;48.364;16.022;2023-12-28T13:45:40;32.23;;;19.77;;
7813;SDS011;3952;48.364;16.022;2023-12-28T13:48:07;29.70;;;20.57;;
7813;SDS011;3952;48.364;16.022;2023-12-28T13:50:36;32.33;;;20.07;;
7813;SDS011;3952;48.364;16.022;2023-12-28T13:53:03;30.43;;;20.23;;
7813;SDS011;3952;48.364;16.022;2023-12-28T13:55:33;30.00;;;19.97;;
7813;SDS011;3952;48.364;16.022;2023-12-28T13:58:00;31.90;;;20.70;;
7813;SDS011;3952;48.364;16.022;2023-12-28T14:00:28;29.83;;;20.47;;
7813;SDS011;3952;48.364;16.022;2023-12-28T14:02:55;36.53;;;22.00;;
7813;SDS011;3952;48.364;16.022;2023-12-28T14:05:24;30.50;;;19.97;;
7813;SDS011;3952;48.364;16.022;2023-12-28T14:07:53;34.97;;;21.37;;
7813;SDS011;3952;48.364;16.022;2023-12-28T14:10:20;36.70;;;23.10;;
7813;SDS011;3952;48.364;16.022;2023-12-28T14:12:47;33.47;;;20.27;;
7813;SDS011;3952;48.364;16.022;2023-12-28T14:15:15;33.60;;;22.37;;
7813;SDS011;3952;48.364;16.022;2023-12-28T14:17:42;37.03;;;22.30;;
7813;SDS011;3952;48.364;16.022;2023-12-28T14:20:10;35.07;;;21.93;;
7813;SDS011;3952;48.364;16.022;2023-12-28T14:22:38;33.30;;;21.10;;
7813;SDS011;3952;48.364;16.022;2023-12-28T14:25:09;31.20;;;19.90;;
7813;SDS011;3952;48.364;16.022;2023-12-28T14:27:38;34.77;;;21.20;;
7813;SDS011;3952;48.364;16.022;2023-12-28T14:30:06;33.27;;;21.43;;
7813;SDS011;3952;48.364;16.022;2023-12-28T14:32:35;35.77;;;21.83;;
7813;SDS011;3952;48.364;16.022;2023-12-28T14:35:04;36.30;;;22.13;;
7813;SDS011;3952;48.364;16.022;2023-12-28T14:37:32;35.83;;;22.77;;
7813;SDS011;3952;48.364;16.022;2023-12-28T14:39:59;35.17;;;21.60;;
7813;SDS011;3952;48.364;16.022;2023-12-28T14:42:32;38.03;;;23.30;;